Time;durP1;ratioP1;P1;durP2;ratioP2;P2;SDS_P1;SDS_P2;PMS_P1;PMS_P2;Temp;Humidity;BMP_temperature;BMP_pressure;BME280_temperature;BME280_humidity;BME280_pressure;Samples;Min_cycle;Max_cycle;Signal;HPM_P1;HPM_P2
2022/01/18 00:00:11;;;;;;;8.82;6.03;;;;;;;21.08;26.82;100814.03;5109493;28;20118;-61
2022/01/18 00:02:39;;;;;;;10.15;7.18;;;;;;;21.08;26.90;100822.38;5109462;28;20040;-62
2022/01/18 00:05:07;;;;;;;7.35;6.13;;;;;;;21.08;26.98;100813.22;5109350;28;20515;-62
2022/01/18 00:07:33;;;;;;;8.93;7.00;;;;;;;21.08;26.94;100814.03;5109483;28;20416;-62
2022/01/18 00:09:58;;;;;;;8.75;6.40;;;;;;;21.08;27.00;100805.69;5109499;28;20522;-62
2022/01/18 00:16:08;;;;;;;10.20;6.50;;;;;;;21.06;26.91;100809.97;5109381;28;20165;-61
2022/01/18 00:18:07;;;;;;;8.15;6.70;;;;;;;21.05;26.90;100803.59;5094699;28;20047;-61
2022/01/18 00:23:20;;;;;;;9.07;6.60;;;;;;;21.05;26.98;100800.81;5109181;28;20047;-62
2022/01/18 00:25:50;;;;;;;9.15;6.50;;;;;;;21.04;26.83;100798.38;5108826;28;20083;-62
2022/01/18 00:28:16;;;;;;;8.73;6.82;;;;;;;21.02;26.79;100801.50;5106501;28;20496;-62
2022/01/18 00:33:23;;;;;;;8.82;6.70;;;;;;;21.09;26.77;100798.97;5108945;28;20059;-61
2022/01/18 00:35:58;;;;;;;7.50;5.97;;;;;;;21.16;26.94;100801.19;5109506;28;20055;-62
2022/01/18 00:40:58;;;;;;;7.25;5.65;;;;;;;21.20;26.74;100802.13;5109616;28;20040;-62
2022/01/18 00:43:24;;;;;;;8.02;6.40;;;;;;;21.21;26.93;100798.19;5109528;28;20082;-61
2022/01/18 00:45:50;;;;;;;7.93;5.97;;;;;;;21.21;26.96;100798.19;5109338;28;20075;-62
2022/01/18 00:48:17;;;;;;;8.30;6.35;;;;;;;21.20;26.72;100791.00;5109009;28;20036;-61
2022/01/18 00:50:44;;;;;;;7.32;5.78;;;;;;;21.21;26.72;100794.56;5108975;28;20131;-61
2022/01/18 00:53:13;;;;;;;8.27;6.13;;;;;;;21.19;26.95;100796.91;5108912;28;20523;-62
2022/01/18 00:55:49;;;;;;;7.07;5.32;;;;;;;21.14;26.70;100792.34;5108813;28;20084;-62
2022/01/18 00:58:15;;;;;;;8.30;6.40;;;;;;;21.16;26.72;100792.84;5104695;28;20522;-62
2022/01/18 01:00:41;;;;;;;8.15;6.22;;;;;;;21.16;27.04;100801.19;5108613;28;20074;-62
2022/01/18 01:03:07;;;;;;;8.18;6.18;;;;;;;21.17;26.78;100797.25;5108676;28;20121;-62
2022/01/18 01:05:32;;;;;;;8.27;5.90;;;;;;;21.14;26.89;100797.91;5108532;28;20043;-61
2022/01/18 01:07:58;;;;;;;8.75;6.35;;;;;;;21.14;26.79;100795.13;5108840;28;20047;-62
2022/01/18 01:10:23;;;;;;;8.38;6.22;;;;;;;21.11;27.10;100796.66;5114786;28;20468;-61
2022/01/18 01:12:49;;;;;;;7.28;5.75;;;;;;;21.12;26.78;100794.69;5115591;28;20388;-61
2022/01/18 01:15:17;;;;;;;8.90;6.25;;;;;;;21.12;26.82;100789.13;5115777;28;20044;-62
2022/01/18 01:17:50;;;;;;;8.02;5.97;;;;;;;21.11;27.00;100788.31;5115735;28;20051;-61
2022/01/18 01:34:34;;;;;;;8.13;5.95;;;;;;;21.26;26.70;100788.81;5115661;28;20046;-61
2022/01/18 01:37:14;;;;;;;7.82;5.55;;;;;;;21.24;26.74;100780.81;5115412;28;20039;-61
2022/01/18 01:44:51;;;;;;;8.25;6.07;;;;;;;21.24;26.58;100778.03;5115649;28;20094;-61
2022/01/18 01:47:20;;;;;;;7.43;5.45;;;;;;;21.22;26.94;100772.00;5115300;28;20063;-62
2022/01/18 01:49:50;;;;;;;7.30;6.03;;;;;;;21.21;26.79;100770.34;5114835;28;20104;-63
2022/01/18 01:52:16;;;;;;;7.95;6.10;;;;;;;21.21;26.80;100764.78;5115335;28;20089;-62
2022/01/18 01:54:42;;;;;;;7.90;5.65;;;;;;;21.19;26.68;100755.16;5115376;28;20105;-62
2022/01/18 01:57:09;;;;;;;7.90;5.85;;;;;;;21.18;26.88;100757.13;5115353;28;20457;-61
2022/01/18 01:59:35;;;;;;;7.20;5.72;;;;;;;21.18;26.88;100754.34;5115211;28;20596;-62
2022/01/18 02:02:01;;;;;;;8.50;6.90;;;;;;;21.17;27.06;100747.97;5115118;28;20043;-62
2022/01/18 02:04:26;;;;;;;8.35;6.43;;;;;;;21.17;26.93;100736.03;5115020;28;20040;-63
2022/01/18 02:06:51;;;;;;;7.05;5.50;;;;;;;21.17;26.89;100736.84;5114957;28;20699;-63
2022/01/18 02:09:18;;;;;;;7.38;5.75;;;;;;;21.16;26.65;100737.19;5114735;28;20043;-63
2022/01/18 02:11:44;;;;;;;7.78;5.90;;;;;;;21.14;26.89;100736.72;5115213;28;20521;-62
2022/01/18 02:14:15;;;;;;;8.07;6.38;;;;;;;21.14;26.91;100737.53;5114917;28;20035;-61
2022/01/18 02:22:10;;;;;;;7.53;5.80;;;;;;;21.13;26.75;100726.75;5110696;28;20051;-61
2022/01/18 02:24:35;;;;;;;7.82;5.78;;;;;;;21.10;26.87;100713.53;5111924;28;20597;-62
2022/01/18 02:27:01;;;;;;;6.47;5.30;;;;;;;21.11;27.01;100720.72;5111929;28;20415;-61
2022/01/18 02:29:26;;;;;;;7.20;5.75;;;;;;;21.11;26.87;100720.72;5112038;28;20065;-61
2022/01/18 02:31:54;;;;;;;7.68;5.75;;;;;;;21.08;27.18;100715.88;5111662;28;20051;-61
2022/01/18 02:34:20;;;;;;;8.20;6.03;;;;;;;21.10;26.88;100719.09;5095009;28;20614;-62
2022/01/18 02:36:46;;;;;;;7.38;5.47;;;;;;;21.09;27.13;100711.91;5091191;28;20044;-61
2022/01/18 02:39:13;;;;;;;7.80;5.70;;;;;;;21.08;26.86;100716.66;5089109;28;20396;-62
2022/01/18 02:41:39;;;;;;;8.07;6.22;;;;;;;21.08;26.95;100716.66;5090883;28;20047;-62
2022/01/18 02:44:10;;;;;;;7.30;5.50;;;;;;;21.07;27.03;100701.13;5089826;28;20117;-61
2022/01/18 02:46:38;;;;;;;7.93;6.13;;;;;;;21.08;27.04;100711.09;5090805;28;20397;-61
2022/01/18 02:49:04;;;;;;;7.53;5.68;;;;;;;21.08;27.00;100704.72;5090692;28;20526;-61
2022/01/18 02:51:30;;;;;;;7.53;5.90;;;;;;;21.07;26.95;100703.91;5090881;28;20044;-61
2022/01/18 02:54:07;;;;;;;7.22;5.40;;;;;;;21.07;26.95;100717.00;5090680;28;20044;-61
2022/01/18 02:56:41;;;;;;;7.32;5.60;;;;;;;21.05;27.15;100708.19;5090660;28;20040;-62
2022/01/18 02:59:16;;;;;;;7.32;5.85;;;;;;;21.04;27.00;100704.59;5090379;28;20458;-62
2022/01/18 03:04:26;;;;;;;7.75;5.53;;;;;;;21.03;26.93;100696.59;5090323;28;20051;-62
2022/01/18 03:06:51;;;;;;;7.65;5.82;;;;;;;21.05;26.95;100694.28;5090286;28;20048;-61
2022/01/18 03:09:17;;;;;;;8.07;6.15;;;;;;;21.02;27.23;100695.78;5090356;28;20059;-61
2022/01/18 03:11:43;;;;;;;7.20;5.50;;;;;;;21.01;27.10;100696.97;5090268;28;20055;-62
2022/01/18 03:14:08;;;;;;;6.85;5.43;;;;;;;21.04;27.16;100703.78;5090441;28;20036;-61
2022/01/18 03:16:34;;;;;;;8.10;6.18;;;;;;;21.04;27.21;100709.34;5090331;28;20047;-61
2022/01/18 03:18:59;;;;;;;6.63;5.50;;;;;;;21.02;27.02;100704.13;5090406;28;20040;-62
2022/01/18 03:21:25;;;;;;;7.45;5.53;;;;;;;21.01;27.17;100690.59;5089785;28;20048;-62
2022/01/18 03:23:54;;;;;;;7.20;5.63;;;;;;;21.02;26.92;100700.53;5089691;28;20052;-62
2022/01/18 03:26:30;;;;;;;6.47;5.25;;;;;;;21.02;27.12;100697.75;5090006;28;20078;-61
2022/01/18 03:28:55;;;;;;;7.22;5.72;;;;;;;21.01;27.11;100693.38;5090235;28;20044;-62
2022/01/18 03:31:21;;;;;;;8.63;6.00;;;;;;;21.01;27.05;100698.94;5090000;28;20047;-61
2022/01/18 03:33:46;;;;;;;7.40;5.75;;;;;;;21.01;27.05;100696.16;5090066;28;20135;-61
2022/01/18 03:36:12;;;;;;;8.35;6.00;;;;;;;21.00;27.07;100697.28;5090059;28;20040;-61
2022/01/18 03:38:37;;;;;;;8.43;5.95;;;;;;;21.01;27.24;100693.38;5089845;28;20048;-61
2022/01/18 03:41:03;;;;;;;7.50;5.82;;;;;;;21.00;27.29;100691.72;5089844;28;20040;-62
2022/01/18 03:43:30;;;;;;;7.95;5.65;;;;;;;21.00;27.12;100686.16;5089570;28;20140;-62
2022/01/18 03:46:01;;;;;;;8.07;6.00;;;;;;;21.00;27.31;100686.16;5089814;28;20108;-62
2022/01/18 03:48:31;;;;;;;7.28;5.65;;;;;;;21.00;27.25;100694.50;5089631;28;20154;-62
2022/01/18 03:50:57;;;;;;;8.23;6.05;;;;;;;20.99;27.32;100692.88;5089552;28;20059;-62
2022/01/18 03:53:23;;;;;;;6.88;5.20;;;;;;;20.97;27.22;100690.44;5089901;28;20043;-62
2022/01/18 03:55:49;;;;;;;7.32;5.38;;;;;;;20.97;27.16;100682.09;5089745;28;20040;-62
2022/01/18 03:58:14;;;;;;;7.82;5.75;;;;;;;20.98;27.28;100688.47;5089667;28;20059;-62
2022/01/18 04:00:40;;;;;;;8.15;6.15;;;;;;;20.96;27.30;100686.03;5089720;28;20070;-62
2022/01/18 04:03:05;;;;;;;7.05;5.40;;;;;;;20.97;27.13;100684.88;5089582;28;20044;-62
2022/01/18 04:05:31;;;;;;;7.15;5.32;;;;;;;20.98;27.23;100689.28;5089279;28;20086;-62
2022/01/18 04:07:56;;;;;;;7.75;6.18;;;;;;;20.95;27.26;100684.41;5089377;28;20052;-62
2022/01/18 04:10:22;;;;;;;7.30;5.63;;;;;;;20.98;27.16;100691.25;5089388;28;20439;-61
2022/01/18 04:12:47;;;;;;;7.63;6.05;;;;;;;20.99;27.14;100685.34;5089443;28;20048;-62
2022/01/18 04:15:14;;;;;;;6.70;5.32;;;;;;;21.03;27.09;100682.69;5089467;28;20430;-62
2022/01/18 04:28:27;;;;;;;7.07;5.13;;;;;;;21.11;27.15;100690.13;5089399;28;20074;-62
2022/01/18 04:30:52;;;;;;;8.10;5.38;;;;;;;21.12;27.15;100688.97;5089068;28;20393;-62
2022/01/18 04:33:18;;;;;;;6.93;5.20;;;;;;;21.10;27.16;100683.75;5088943;28;20660;-62
2022/01/18 04:35:43;;;;;;;6.65;4.90;;;;;;;21.10;27.01;100694.06;5089039;28;20328;-62
2022/01/18 04:38:09;;;;;;;6.97;5.05;;;;;;;21.09;27.13;100692.44;5088950;28;20503;-62
2022/01/18 04:40:36;;;;;;;6.95;5.40;;;;;;;21.09;27.31;100689.66;5086820;28;20576;-61
2022/01/18 04:43:09;;;;;;;6.70;5.18;;;;;;;21.08;27.10;100691.63;5088830;28;20139;-62
2022/01/18 04:48:29;;;;;;;6.85;5.03;;;;;;;21.10;27.24;100696.84;5089095;28;19977;-61
2022/01/18 04:51:01;;;;;;;6.72;5.22;;;;;;;21.07;27.14;100700.31;5088772;28;20036;-62
2022/01/18 04:53:30;;;;;;;7.35;5.70;;;;;;;21.04;27.19;100696.25;5088985;28;20094;-62
2022/01/18 04:55:59;;;;;;;6.55;5.15;;;;;;;21.03;27.02;100694.63;5088830;28;20028;-61
2022/01/18 04:58:25;;;;;;;6.65;5.30;;;;;;;21.05;27.08;100692.31;5088685;28;20059;-62
2022/01/18 05:00:53;;;;;;;7.43;5.30;;;;;;;21.04;27.20;100693.47;5088547;28;20077;-62
2022/01/18 05:03:19;;;;;;;6.53;5.00;;;;;;;21.04;27.19;100692.66;5088810;28;20500;-62
2022/01/18 05:05:44;;;;;;;6.88;5.15;;;;;;;21.02;27.33;100695.78;5088340;28;20047;-62
2022/01/18 05:08:13;;;;;;;6.32;5.00;;;;;;;21.02;27.35;100698.56;5088841;28;20056;-62
2022/01/18 05:10:40;;;;;;;7.13;5.05;;;;;;;21.00;27.25;100694.50;5088562;28;20059;-62
2022/01/18 05:13:22;;;;;;;7.68;5.53;;;;;;;21.04;27.30;100699.03;5088445;28;20512;-62
2022/01/18 05:15:56;;;;;;;6.90;5.35;;;;;;;21.09;27.07;100698.81;5088625;28;20036;-62
2022/01/18 05:21:17;;;;;;;7.55;5.68;;;;;;;21.15;27.19;100697.44;5088467;28;20052;-62
2022/01/18 05:23:43;;;;;;;7.53;5.47;;;;;;;21.19;27.10;100705.09;5088243;28;20056;-62
2022/01/18 05:26:11;;;;;;;6.43;4.72;;;;;;;21.20;27.03;100704.72;5088177;28;20048;-62
2022/01/18 05:28:37;;;;;;;7.10;5.38;;;;;;;21.22;27.05;100704.38;5087725;28;20047;-62
2022/01/18 05:31:02;;;;;;;6.30;5.20;;;;;;;21.19;27.21;100696.72;5088174;28;20097;-62
2022/01/18 05:33:28;;;;;;;6.63;4.82;;;;;;;21.21;27.03;100706.34;5087703;28;20510;-62
2022/01/18 05:35:54;;;;;;;7.60;5.35;;;;;;;21.20;27.30;100706.69;5107501;28;20039;-62
2022/01/18 05:38:20;;;;;;;7.20;5.45;;;;;;;21.20;27.04;100699.16;5108615;28;20556;-62
2022/01/18 05:40:45;;;;;;;6.75;5.13;;;;;;;21.16;27.25;100698.25;5108643;28;20388;-62
2022/01/18 05:43:11;;;;;;;7.30;5.43;;;;;;;21.17;27.06;100702.66;5108791;28;20066;-62
2022/01/18 05:45:36;;;;;;;7.88;5.38;;;;;;;21.17;27.30;100709.03;5108286;28;20089;-62
2022/01/18 05:48:01;;;;;;;6.82;5.18;;;;;;;21.16;27.19;100704.63;5108535;28;20419;-62
2022/01/18 05:50:27;;;;;;;6.85;4.97;;;;;;;21.16;27.11;100709.38;5108534;28;20039;-62
2022/01/18 05:52:52;;;;;;;7.18;5.20;;;;;;;21.15;27.34;100714.13;5108292;28;20065;-62
2022/01/18 05:55:18;;;;;;;6.97;5.35;;;;;;;21.16;27.36;100714.94;5108445;28;20051;-62
2022/01/18 05:57:44;;;;;;;6.38;4.88;;;;;;;21.14;27.14;100712.47;5111840;28;20075;-62
2022/01/18 06:00:19;;;;;;;6.78;5.22;;;;;;;21.14;27.26;100712.47;5111852;28;20047;-61
2022/01/18 06:02:59;;;;;;;7.80;5.57;;;;;;;21.14;27.42;100715.25;5111755;28;20043;-61
2022/01/18 06:08:11;;;;;;;6.75;5.13;;;;;;;21.11;27.24;100712.38;5111750;28;20537;-61
2022/01/18 06:10:36;;;;;;;7.38;5.60;;;;;;;21.13;27.34;100707.28;5111830;28;20059;-62
2022/01/18 06:13:03;;;;;;;6.53;4.90;;;;;;;21.11;27.21;100715.97;5111490;28;20051;-61
2022/01/18 06:15:30;;;;;;;7.30;5.13;;;;;;;21.14;27.32;100714.44;5111693;28;20044;-61
2022/01/18 06:17:56;;;;;;;6.60;4.90;;;;;;;21.13;27.50;100718.41;5111436;28;20385;-62
2022/01/18 06:20:21;;;;;;;6.50;4.80;;;;;;;21.15;27.11;100716.09;5111847;28;20568;-62
2022/01/18 06:22:49;;;;;;;8.38;5.20;;;;;;;21.16;27.44;100724.09;5111866;28;20044;-62
2022/01/18 06:25:14;;;;;;;6.97;5.05;;;;;;;21.15;27.48;100733.59;5111704;28;20058;-61
2022/01/18 06:27:40;;;;;;;7.53;5.88;;;;;;;21.17;27.40;100728.50;5111803;28;20039;-61
2022/01/18 06:30:09;;;;;;;7.43;4.38;;;;;;;21.16;27.56;100735.22;5111655;28;20040;-61
2022/01/18 06:32:39;;;;;;;6.93;4.82;;;;;;;21.16;27.23;100726.88;5111357;28;20093;-61
2022/01/18 06:35:06;;;;;;;8.80;5.05;;;;;;;21.18;27.45;100737.66;5111386;28;20048;-61
2022/01/18 06:37:32;;;;;;;6.80;5.05;;;;;;;21.16;27.62;100731.63;5108840;28;20039;-60
2022/01/18 06:39:58;;;;;;;7.85;5.10;;;;;;;21.17;27.32;100736.84;5111246;28;20040;-61
2022/01/18 06:42:24;;;;;;;6.78;5.00;;;;;;;21.16;27.10;100735.22;5111205;28;20086;-60
2022/01/18 06:44:51;;;;;;;6.20;4.78;;;;;;;21.17;27.55;100730.47;5111338;28;20463;-61
2022/01/18 06:47:16;;;;;;;6.65;4.82;;;;;;;21.15;27.24;100730.03;5111232;28;20062;-60
2022/01/18 06:49:42;;;;;;;6.53;4.65;;;;;;;21.16;27.45;100731.63;5111112;28;20043;-61
2022/01/18 06:52:07;;;;;;;6.35;4.72;;;;;;;21.14;27.16;100731.16;5111096;28;20053;-61
2022/01/18 06:54:33;;;;;;;6.53;4.82;;;;;;;21.14;27.30;100731.16;5110985;28;20393;-61
2022/01/18 06:56:58;;;;;;;7.50;4.95;;;;;;;21.16;27.26;100734.41;5111022;28;20591;-61
2022/01/18 06:59:24;;;;;;;6.65;4.72;;;;;;;21.16;27.49;100734.41;5110989;28;20507;-60
2022/01/18 07:01:49;;;;;;;6.20;4.55;;;;;;;21.14;27.31;100731.16;5111015;28;20052;-60
2022/01/18 07:04:15;;;;;;;6.57;5.05;;;;;;;21.16;27.27;100732.44;5111191;28;20085;-60
2022/01/18 07:06:40;;;;;;;6.07;4.65;;;;;;;21.16;27.46;100739.97;5110351;28;20047;-61
2022/01/18 07:09:06;;;;;;;6.70;5.10;;;;;;;21.17;27.40;100741.59;5110932;28;20511;-61
2022/01/18 07:11:31;;;;;;;5.88;4.50;;;;;;;21.14;27.24;100731.97;5110757;28;20043;-61
2022/01/18 07:13:56;;;;;;;6.47;4.90;;;;;;;21.12;27.35;100737.06;5110813;28;20051;-60
2022/01/18 07:16:22;;;;;;;7.50;5.18;;;;;;;21.14;27.37;100739.50;5091115;28;20044;-60
2022/01/18 07:18:47;;;;;;;6.70;4.95;;;;;;;21.16;27.47;100734.41;5110408;28;20478;-61
2022/01/18 07:21:13;;;;;;;6.72;4.88;;;;;;;21.14;27.26;100740.31;5110365;28;20054;-60
2022/01/18 07:23:39;;;;;;;6.60;4.97;;;;;;;21.11;27.52;100738.22;5110304;28;20069;-61
2022/01/18 07:26:05;;;;;;;6.75;4.90;;;;;;;21.11;27.30;100742.97;5110244;28;20047;-60
2022/01/18 07:28:31;;;;;;;7.03;4.95;;;;;;;21.10;27.30;100744.94;5110098;28;20093;-61
2022/01/18 07:30:56;;;;;;;7.88;5.03;;;;;;;21.11;27.38;100754.09;5110821;28;20426;-60
2022/01/18 07:33:22;;;;;;;6.22;4.72;;;;;;;21.11;27.46;100754.09;5110842;28;20445;-61
2022/01/18 07:35:48;;;;;;;6.53;4.85;;;;;;;21.13;27.30;100757.34;5110513;28;20035;-61
2022/01/18 07:38:17;;;;;;;6.35;4.85;;;;;;;21.12;27.31;100761.28;5110755;28;20046;-60
2022/01/18 07:40:45;;;;;;;7.00;5.18;;;;;;;21.08;27.46;100765.94;5109986;28;20054;-60
2022/01/18 07:43:15;;;;;;;6.32;4.82;;;;;;;21.11;27.31;100768.03;5108543;28;20534;-61
2022/01/18 07:45:42;;;;;;;7.63;5.50;;;;;;;21.09;27.39;100765.59;5106053;28;20090;-61
2022/01/18 07:48:08;;;;;;;7.65;5.18;;;;;;;21.11;27.38;100770.81;5103670;28;20047;-62
2022/01/18 07:50:33;;;;;;;7.60;5.35;;;;;;;21.10;27.77;100772.78;5109467;28;20040;-60
2022/01/18 07:52:59;;;;;;;13.30;7.72;;;;;;;21.07;27.79;100764.28;5103805;28;20048;-61
2022/01/18 07:55:24;;;;;;;8.15;5.97;;;;;;;21.03;28.22;100766.97;5090948;28;20040;-61
2022/01/18 07:57:50;;;;;;;8.88;5.85;;;;;;;21.05;28.37;100772.16;5088680;28;20048;-60
2022/01/18 08:00:16;;;;;;;8.85;5.80;;;;;;;21.07;28.46;100775.41;5100341;28;20087;-62
2022/01/18 08:02:42;;;;;;;33.17;11.30;;;;;;;21.06;28.12;100773.78;5098092;28;20044;-62
2022/01/18 08:05:09;;;;;;;22.80;11.80;;;;;;;21.03;28.33;100775.31;5105557;28;20040;-62
2022/01/18 08:07:35;;;;;;;21.77;12.07;;;;;;;21.05;28.15;100783.31;5092639;28;20674;-61
2022/01/18 08:10:03;;;;;;;15.43;9.40;;;;;;;21.05;28.20;100783.31;5098665;28;20134;-60
2022/01/18 08:12:32;;;;;;;12.38;7.80;;;;;;;21.09;28.22;100784.25;5088512;28;20047;-64
2022/01/18 08:15:02;;;;;;;12.55;7.45;;;;;;;21.11;28.29;100790.28;5088611;28;20060;-64
2022/01/18 08:17:29;;;;;;;10.55;7.20;;;;;;;21.09;28.43;100781.47;5103379;28;20046;-64
2022/01/18 08:19:54;;;;;;;10.95;7.15;;;;;;;21.13;28.62;100783.19;5102471;28;20044;-62
2022/01/18 08:22:20;;;;;;;12.88;7.20;;;;;;;21.12;29.06;100777.97;5101443;28;20039;-63
2022/01/18 08:24:45;;;;;;;11.25;7.30;;;;;;;21.14;29.17;100786.78;5099514;28;20370;-63
2022/01/18 08:27:11;;;;;;;11.75;7.05;;;;;;;21.15;29.08;100791.22;5101398;28;20186;-63
2022/01/18 08:29:38;;;;;;;11.13;7.05;;;;;;;21.16;29.21;100779.75;5098177;28;20459;-63
2022/01/18 08:32:05;;;;;;;10.25;6.57;;;;;;;21.17;29.10;100794.47;5101923;28;20052;-63
2022/01/18 08:34:30;;;;;;;8.73;6.25;;;;;;;21.19;28.99;100788.56;5100828;28;20511;-63
2022/01/18 08:36:55;;;;;;;9.68;6.38;;;;;;;21.19;28.98;100789.38;5100996;28;20180;-62
2022/01/18 08:39:21;;;;;;;8.27;5.88;;;;;;;21.18;29.19;100796.09;5105435;28;20058;-63
2022/01/18 08:41:46;;;;;;;9.68;6.25;;;;;;;21.20;28.99;100795.75;5097736;28;20044;-64
2022/01/18 08:44:12;;;;;;;8.23;5.95;;;;;;;21.20;29.40;100798.53;5105366;28;20403;-62
2022/01/18 08:46:37;;;;;;;9.73;6.03;;;;;;;21.20;29.42;100796.56;5091769;28;20138;-61
2022/01/18 08:49:05;;;;;;;9.43;5.85;;;;;;;21.19;29.57;100806.06;5093425;28;20040;-63
2022/01/18 08:51:31;;;;;;;9.25;5.63;;;;;;;21.18;29.44;100804.44;5107174;28;20143;-62
2022/01/18 08:53:56;;;;;;;14.20;5.30;;;;;;;21.20;29.52;100807.69;5108095;28;20460;-61
2022/01/18 08:56:23;;;;;;;15.48;9.20;;;;;;;21.19;29.34;100800.50;5103689;28;20044;-61
2022/01/18 08:58:49;;;;;;;18.40;8.77;;;;;;;21.22;29.08;100802.59;5099638;28;20435;-62
2022/01/18 09:01:15;;;;;;;18.77;8.00;;;;;;;21.41;29.28;100802.09;5095444;28;20048;-61
2022/01/18 09:03:41;;;;;;;12.73;6.68;;;;;;;21.59;29.14;100809.09;5104469;28;20036;-59
2022/01/18 09:06:07;;;;;;;11.13;7.47;;;;;;;21.68;29.11;100806.19;5106104;28;20043;-60
2022/01/18 09:08:37;;;;;;;10.27;6.55;;;;;;;21.73;29.05;100808.75;5102844;28;20042;-59
2022/01/18 09:11:05;;;;;;;11.48;6.07;;;;;;;21.71;29.01;100809.06;5105346;28;20031;-61
2022/01/18 09:13:33;;;;;;;10.65;6.95;;;;;;;21.68;28.92;100808.97;5106054;28;20028;-62
2022/01/18 09:16:00;;;;;;;8.75;5.60;;;;;;;21.65;29.00;100804.91;5094273;28;20384;-66
2022/01/18 09:18:26;;;;;;;9.85;6.10;;;;;;;21.63;29.30;100812.78;5105068;28;20132;-62
2022/01/18 09:20:51;;;;;;;8.93;6.10;;;;;;;21.63;29.21;100815.56;5100554;28;20138;-62
2022/01/18 09:23:17;;;;;;;11.18;5.97;;;;;;;21.64;29.22;100816.38;5097992;28;20039;-64
2022/01/18 09:25:43;;;;;;;9.43;5.40;;;;;;;21.61;29.50;100817.91;5095750;28;20069;-64
2022/01/18 09:28:09;;;;;;;30.48;16.23;;;;;;;21.57;28.83;100816.13;5097829;28;20047;-68
2022/01/18 09:30:35;;;;;;;42.80;24.20;;;;;;;21.40;28.69;100812.41;5096586;28;20047;-63
2022/01/18 09:33:04;;;;;;;54.03;29.52;;;;;;;21.38;28.64;100819.50;5101877;28;20040;-60
2022/01/18 09:35:29;;;;;;;53.05;27.77;;;;;;;21.36;28.67;100822.63;5103405;28;20551;-62
2022/01/18 09:37:55;;;;;;;45.85;24.15;;;;;;;21.34;28.85;100827.69;5098793;28;20679;-63
2022/01/18 09:40:23;;;;;;;32.08;18.80;;;;;;;21.34;29.13;100822.13;5102176;28;20040;-63
2022/01/18 09:42:54;;;;;;;26.08;15.48;;;;;;;21.33;29.01;100817.72;5099896;28;20047;-60
2022/01/18 09:45:20;;;;;;;25.92;15.27;;;;;;;21.34;29.41;100818.53;5100979;28;20101;-62
2022/01/18 09:47:49;;;;;;;23.30;14.00;;;;;;;21.34;29.19;100822.13;5099350;28;20047;-60
2022/01/18 09:50:17;;;;;;;22.83;14.05;;;;;;;21.36;29.54;100824.56;5099836;28;20089;-61
2022/01/18 09:52:43;;;;;;;21.13;13.18;;;;;;;21.37;29.49;100820.66;5100946;28;20039;-61
2022/01/18 09:55:09;;;;;;;19.27;12.02;;;;;;;21.37;29.41;100826.22;5105349;28;20085;-59
2022/01/18 09:57:36;;;;;;;17.55;10.82;;;;;;;21.39;29.70;100826.69;5104288;28;20044;-60
2022/01/18 10:00:04;;;;;;;16.85;10.95;;;;;;;21.42;29.49;100821.22;5096724;28;20558;-67
2022/01/18 10:02:29;;;;;;;15.77;9.48;;;;;;;21.42;29.46;100825.97;5098826;28;20084;-66
2022/01/18 10:04:57;;;;;;;14.95;8.98;;;;;;;21.42;29.33;100829.56;5100813;28;20044;-60
2022/01/18 10:07:33;;;;;;;12.27;7.70;;;;;;;21.40;29.12;100828.28;5100005;28;20047;-62
2022/01/18 10:10:01;;;;;;;12.80;8.38;;;;;;;21.39;29.18;100826.69;5093672;28;20051;-59
2022/01/18 10:12:27;;;;;;;11.07;7.60;;;;;;;21.36;29.23;100824.56;5099712;28;20043;-59
2022/01/18 10:14:58;;;;;;;12.82;7.35;;;;;;;21.35;29.15;100826.53;5105965;28;20048;-60
2022/01/18 10:17:30;;;;;;;11.85;7.57;;;;;;;21.34;29.33;100827.69;5101624;28;20048;-68
2022/01/18 10:20:08;;;;;;;9.40;6.55;;;;;;;21.36;29.19;100822.63;5100519;28;20043;-66
2022/01/18 10:22:43;;;;;;;10.02;6.75;;;;;;;21.34;29.27;100819.34;5099678;28;20051;-62
2022/01/18 10:25:22;;;;;;;9.35;6.72;;;;;;;21.34;29.00;100819.34;5099132;28;20051;-60
2022/01/18 10:27:51;;;;;;;8.95;6.50;;;;;;;21.35;29.14;100829.31;5097736;28;20079;-63
2022/01/18 10:30:32;;;;;;;9.40;6.20;;;;;;;21.36;29.25;100824.56;5099322;28;20113;-64
2022/01/18 10:33:01;;;;;;;9.10;6.65;;;;;;;21.37;29.25;100812.28;5093650;28;20495;-66
2022/01/18 10:35:26;;;;;;;9.32;6.28;;;;;;;21.36;29.24;100816.22;5097553;28;20047;-72
2022/01/18 10:37:52;;;;;;;9.80;6.63;;;;;;;21.36;29.03;100805.06;5100866;28;20044;-66
2022/01/18 10:40:18;;;;;;;8.70;6.30;;;;;;;21.35;29.14;100809.84;5098480;28;20079;-62
2022/01/18 10:42:48;;;;;;;15.23;7.18;;;;;;;21.38;29.07;100806.38;5093289;28;20098;-64
2022/01/18 10:45:33;;;;;;;10.57;6.90;;;;;;;21.38;29.22;100802.78;5095355;28;20896;-63
2022/01/18 10:48:18;;;;;;;9.25;6.57;;;;;;;21.41;29.03;100793.72;5091098;28;20078;-63
2022/01/18 10:50:46;;;;;;;9.30;5.97;;;;;;;21.42;28.74;100793.38;5089125;28;20036;-64
2022/01/18 10:53:21;;;;;;;8.80;6.38;;;;;;;21.45;28.87;100794.69;5090946;28;20044;-63
2022/01/18 10:55:49;;;;;;;8.20;5.68;;;;;;;21.46;28.90;100785.16;5101693;28;20076;-66
2022/01/18 10:58:18;;;;;;;9.57;6.03;;;;;;;21.50;28.67;100788.88;5097274;28;20253;-62
2022/01/18 11:00:44;;;;;;;10.77;4.93;;;;;;;21.53;28.60;100788.19;5102053;28;20036;-59
2022/01/18 11:03:10;;;;;;;7.65;5.40;;;;;;;21.55;28.72;100779.47;5098992;28;20126;-59
2022/01/18 11:05:41;;;;;;;8.85;5.20;;;;;;;21.55;28.70;100771.94;5100672;28;20054;-60
2022/01/18 11:08:07;;;;;;;8.50;5.45;;;;;;;21.54;28.82;100766.72;5103159;28;20512;-60
2022/01/18 11:10:41;;;;;;;10.85;5.53;;;;;;;21.56;28.77;100769.97;5102574;28;20044;-60
2022/01/18 11:13:17;;;;;;;6.47;5.00;;;;;;;21.56;28.80;100767.19;5099713;28;20055;-60
2022/01/18 11:15:46;;;;;;;7.30;5.60;;;;;;;21.55;28.94;100757.22;5102342;28;20036;-59
2022/01/18 11:18:28;;;;;;;6.63;4.78;;;;;;;21.57;29.01;100757.66;5101235;28;20074;-59
2022/01/18 11:20:54;;;;;;;6.83;4.90;;;;;;;21.54;29.27;100750.03;5095622;28;20036;-62
2022/01/18 11:23:23;;;;;;;6.30;4.68;;;;;;;21.54;29.31;100750.03;5092652;28;20047;-62
2022/01/18 11:25:49;;;;;;;7.22;4.90;;;;;;;21.54;29.40;100755.59;5095439;28;20071;-63
2022/01/18 11:28:16;;;;;;;6.80;4.80;;;;;;;21.55;29.22;100751.66;5095285;28;20090;-63
2022/01/18 11:30:44;;;;;;;6.72;4.80;;;;;;;21.54;29.59;100741.69;5099028;28;20499;-63
2022/01/18 11:33:18;;;;;;;6.85;4.80;;;;;;;21.54;29.76;100741.69;5097290;28;20078;-64
2022/01/18 11:35:58;;;;;;;6.93;4.72;;;;;;;21.52;29.46;100736.47;5099375;28;20047;-61
2022/01/18 11:38:35;;;;;;;6.47;4.72;;;;;;;21.54;29.51;100736.09;5096189;28;20153;-62
2022/01/18 11:41:05;;;;;;;6.20;4.45;;;;;;;21.52;29.79;100730.88;5098410;28;20047;-62
2022/01/18 11:43:44;;;;;;;7.43;4.88;;;;;;;21.53;29.88;100726.94;5096485;28;20108;-63
2022/01/18 11:46:37;;;;;;;7.07;4.75;;;;;;;21.54;29.70;100724.97;5092376;28;20189;-62
2022/01/18 11:49:15;;;;;;;6.90;4.70;;;;;;;21.53;29.72;100715.00;5097873;28;20039;-62
2022/01/18 11:51:48;;;;;;;5.90;4.40;;;;;;;21.54;29.69;100717.44;5092751;28;20035;-62
2022/01/18 11:54:20;;;;;;;5.63;4.47;;;;;;;21.54;29.34;100719.41;5094895;28;20059;-62
2022/01/18 11:56:46;;;;;;;7.80;4.70;;;;;;;21.54;29.16;100711.84;5093639;28;20032;-62
2022/01/18 11:59:21;;;;;;;7.28;4.38;;;;;;;21.54;29.28;100716.63;5094450;28;20042;-61
2022/01/18 12:01:53;;;;;;;6.03;4.47;;;;;;;21.55;29.18;100715.44;5089390;28;20050;-62
2022/01/18 12:04:38;;;;;;;5.80;4.07;;;;;;;21.55;29.13;100707.09;5094151;28;20044;-61
2022/01/18 12:07:04;;;;;;;6.32;4.78;;;;;;;21.54;28.88;100713.84;5095322;28;20558;-62
2022/01/18 12:09:37;;;;;;;6.20;4.22;;;;;;;21.55;28.83;100707.09;5092692;28;20036;-61
2022/01/18 12:12:04;;;;;;;6.93;4.53;;;;;;;21.56;28.53;100703.16;5092631;28;20127;-61
2022/01/18 12:14:33;;;;;;;6.15;4.30;;;;;;;21.56;28.62;100698.38;5090598;28;20118;-62
2022/01/18 12:17:15;;;;;;;14.80;4.07;;;;;;;21.54;28.43;100695.16;5100667;28;20089;-63
2022/01/18 12:19:44;;;;;;;15.68;4.60;;;;;;;21.55;28.37;100695.97;5099173;28;20044;-63
2022/01/18 12:22:10;;;;;;;15.10;4.25;;;;;;;21.54;28.39;100691.56;5095868;28;20048;-64
2022/01/18 12:24:36;;;;;;;10.00;4.10;;;;;;;21.54;28.48;100691.56;5094743;28;20044;-63